Time;durP1;ratioP1;P1;durP2;ratioP2;P2;SDS_P1;SDS_P2;PMS_P1;PMS_P2;Temp;Humidity;BMP_temperature;BMP_pressure;BME280_temperature;BME280_humidity;BME280_pressure;Samples;Min_cycle;Max_cycle;Signal;HPM_P1;HPM_P2
2021/01/11 00:00:20;;;;;;;;;2.75;2.75;19.70;75.10;;;18.27;56.73;102378.75;5104073;27;8770;-55
2021/01/11 00:02:47;;;;;;;;;8.25;7.00;19.70;75.30;;;18.37;57.14;102385.13;5100663;27;8764;-57
2021/01/11 00:05:16;;;;;;;;;5.50;5.50;19.80;74.90;;;18.43;56.39;102378.47;5104535;27;8798;-54
2021/01/11 00:07:44;;;;;;;;;14.00;13.75;19.90;74.40;;;18.41;56.32;102386.59;5103566;27;8803;-54
2021/01/11 00:10:13;;;;;;;;;13.50;13.25;20.20;73.90;;;18.42;56.52;102388.31;5081637;28;8827;-53
2021/01/11 00:12:42;;;;;;;;;11.00;11.00;20.00;74.40;;;18.42;56.47;102391.00;5084968;28;8794;-53
2021/01/11 00:15:11;;;;;;;;;5.75;5.75;19.90;74.30;;;18.42;56.53;102398.16;5086299;28;8833;-49
2021/01/11 00:17:38;;;;;;;;;6.50;5.25;19.70;74.50;;;18.46;56.38;102396.09;5087277;28;8821;-51
2021/01/11 00:20:09;;;;;;;;;2.50;2.50;20.10;74.40;;;18.50;56.23;102386.91;5098652;28;8816;-55
2021/01/11 00:22:36;;;;;;;;;1.00;1.00;20.00;74.00;;;18.51;55.93;102384.09;5084993;28;8797;-55
2021/01/11 00:25:05;;;;;;;;;1.75;1.75;20.10;74.00;;;18.50;56.25;102389.56;5084415;28;9715;-52
2021/01/11 00:27:32;;;;;;;;;1.50;1.50;20.00;74.30;;;18.50;56.55;102386.91;5085686;28;8887;-53
2021/01/11 00:29:59;;;;;;;;;1.50;1.50;19.90;74.60;;;18.52;56.38;102379.59;5100810;28;8878;-50
2021/01/11 00:32:25;;;;;;;;;2.25;2.25;20.00;75.00;;;18.58;56.13;102379.16;5081805;28;10042;-54
2021/01/11 00:34:52;;;;;;;;;2.00;2.00;20.00;74.30;;;18.59;56.14;102375.47;5080317;28;8785;-53
2021/01/11 00:37:19;;;;;;;;;2.00;1.75;20.10;74.00;;;18.59;56.16;102373.66;5080028;28;8851;-54
2021/01/11 00:39:46;;;;;;;;;0.00;0.00;20.30;74.20;;;18.60;56.24;102378.06;5089132;28;8789;-54
2021/01/11 00:42:14;;;;;;;;;1.50;1.50;19.90;74.20;;;18.60;56.41;102377.22;5078820;28;9576;-54
2021/01/11 00:44:41;;;;;;;;;1.00;1.00;20.00;74.60;;;18.61;56.39;102373.56;5087123;28;8898;-52
2021/01/11 00:47:08;;;;;;;;;1.00;1.00;20.00;75.00;;;18.64;56.27;102374.16;5085978;28;9516;-51
2021/01/11 00:49:35;;;;;;;;;2.00;2.00;20.00;74.70;;;18.68;56.01;102371.28;5083710;28;8848;-52
2021/01/11 00:52:04;;;;;;;;;1.00;1.00;20.20;74.40;;;18.70;56.07;102375.56;5076785;28;8922;-56
2021/01/11 00:54:31;;;;;;;;;1.50;1.50;20.10;74.20;;;18.71;56.02;102366.53;5080594;28;9523;-56
2021/01/11 00:56:57;;;;;;;;;1.50;1.25;20.00;74.30;;;18.70;56.17;102361.28;5081337;28;8794;-54
2021/01/11 00:59:25;;;;;;;;;1.50;1.00;20.20;74.50;;;18.71;56.24;102355.84;5077501;28;9494;-55
2021/01/11 01:02:01;;;;;;;;;1.00;1.00;20.00;74.60;;;18.69;56.54;102357.75;5081166;28;8797;-55
2021/01/11 01:04:28;;;;;;;;;0.75;0.75;20.00;74.80;;;18.71;56.40;102361.19;5077490;28;8815;-57
2021/01/11 01:07:02;;;;;;;;;1.00;1.00;20.30;75.10;;;18.73;56.48;102351.22;5087699;28;8784;-57
2021/01/11 01:09:30;;;;;;;;;1.25;1.00;19.90;75.20;;;18.75;56.49;102354.69;5084425;28;8892;-56
2021/01/11 01:11:57;;;;;;;;;2.00;1.00;20.10;75.00;;;18.79;56.25;102356.13;5080235;28;9531;-53
2021/01/11 01:14:23;;;;;;;;;1.00;1.00;20.30;74.80;;;18.81;56.39;102356.03;5086399;28;8772;-56
2021/01/11 01:16:51;;;;;;;;;2.00;2.00;20.40;74.80;;;18.80;56.57;102365.88;5079834;28;8785;-55
2021/01/11 01:19:18;;;;;;;;;1.75;1.75;20.10;74.80;;;18.81;56.42;102364.06;5080813;28;8832;-54
2021/01/11 01:21:45;;;;;;;;;1.25;1.25;20.30;75.00;;;18.81;56.43;102364.06;5079327;28;8774;-57
2021/01/11 01:24:12;;;;;;;;;1.00;1.00;20.30;75.10;;;18.80;56.60;102355.19;5087916;28;8764;-56
2021/01/11 01:26:39;;;;;;;;;1.00;1.00;20.00;75.30;;;18.84;56.47;102356.63;5090303;28;8802;-53
2021/01/11 01:29:05;;;;;;;;;1.00;1.00;20.30;75.20;;;18.89;56.44;102360.78;5082628;28;8875;-53
2021/01/11 01:31:32;;;;;;;;;0.75;0.75;20.20;74.90;;;18.90;56.25;102357.13;5073120;28;8841;-56
2021/01/11 01:33:59;;;;;;;;;2.50;2.00;20.30;74.60;;;18.93;56.33;102383.66;5082616;28;8840;-56
2021/01/11 01:36:26;;;;;;;;;2.00;2.00;20.30;74.50;;;18.92;56.18;102377.47;5092533;28;8792;-56
2021/01/11 01:38:53;;;;;;;;;1.00;1.00;20.30;74.60;;;18.92;56.41;102373.94;5077880;28;8786;-57
2021/01/11 01:41:19;;;;;;;;;2.00;2.00;20.20;74.60;;;18.92;56.29;102377.47;5095584;28;8860;-55
2021/01/11 01:43:46;;;;;;;;;1.00;1.00;20.10;75.10;;;18.95;56.42;102379.06;5090173;28;8800;-55
2021/01/11 01:46:20;;;;;;;;;2.50;1.50;20.20;75.10;;;19.03;56.07;102384.69;5082131;28;8830;-50
2021/01/11 01:48:47;;;;;;;;;1.00;0.00;20.30;74.80;;;19.02;55.96;102374.94;5070113;28;8899;-51
2021/01/11 01:51:14;;;;;;;;;0.50;0.50;20.30;74.60;;;19.03;55.87;102382.88;5068688;28;8843;-51
2021/01/11 01:53:44;;;;;;;;;2.00;1.25;20.20;74.50;;;19.02;55.91;102381.16;5084786;28;8780;-52
2021/01/11 01:56:12;;;;;;;;;1.00;1.00;20.40;74.80;;;19.03;56.00;102377.53;5083414;28;8911;-53
2021/01/11 01:58:40;;;;;;;;;1.00;1.00;20.40;74.90;;;19.04;56.04;102371.19;5082948;28;8784;-51
2021/01/11 02:01:06;;;;;;;;;1.50;1.00;20.20;75.20;;;19.08;56.00;102379.81;5076093;28;8798;-51
2021/01/11 02:03:33;;;;;;;;;0.50;0.00;20.40;74.90;;;19.14;55.89;102373.16;5093681;28;8773;-49
2021/01/11 02:06:01;;;;;;;;;1.75;1.75;20.60;74.70;;;19.14;55.82;102371.34;5082350;28;8892;-50
2021/01/11 02:09:00;;;;;;;;;2.00;2.00;20.60;74.40;;;19.13;56.00;102377.63;5074874;28;8780;-53
2021/01/11 02:11:35;;;;;;;;;1.00;1.00;20.70;74.60;;;19.14;55.97;102374.00;5075721;28;8837;-51
2021/01/11 02:15:02;;;;;;;;;2.25;2.25;20.40;74.80;;;19.14;56.04;102374.00;5085139;28;8764;-48
2021/01/11 02:17:40;;;;;;;;;0.00;0.00;20.40;75.00;;;19.16;56.28;102377.44;5004772;28;8789;-49
2021/01/11 02:20:53;;;;;;;;;2.00;2.00;20.20;75.40;;;19.16;55.95;102377.44;5068382;28;8873;-50
2021/01/11 02:24:07;;;;;;;;;2.25;2.25;20.40;75.10;;;19.25;55.70;102371.34;5078020;28;9564;-57
2021/01/11 02:27:07;;;;;;;;;1.75;1.75;20.60;74.60;;;19.29;55.64;102385.38;5083190;28;8780;-57
2021/01/11 02:29:59;;;;;;;;;4.00;3.25;20.60;74.40;;;19.32;55.50;102381.59;5084178;28;8770;-56
2021/01/11 02:32:29;;;;;;;;;5.50;5.00;20.70;74.60;;;19.34;55.75;102388.53;5081111;28;8842;-55
2021/01/11 02:34:59;;;;;;;;;3.00;3.00;20.50;74.70;;;19.37;55.70;102387.44;5083054;28;8897;-55
2021/01/11 02:37:27;;;;;;;;;3.50;3.00;20.50;74.80;;;19.38;56.00;102389.16;5070785;28;8790;-56
2021/01/11 02:39:55;;;;;;;;;3.00;3.00;20.60;75.00;;;19.39;55.62;102383.69;5073039;28;8809;-58
2021/01/11 02:42:22;;;;;;;;;3.25;3.25;20.50;74.90;;;19.45;55.49;102393.91;5065945;28;8788;-57
2021/01/11 02:44:48;;;;;;;;;6.00;3.00;20.70;74.80;;;19.48;55.36;102388.31;5085254;28;8830;-56
2021/01/11 02:47:25;;;;;;;;;4.00;4.00;20.50;74.30;;;19.53;55.28;102393.31;5074340;28;8785;-57
2021/01/11 02:49:58;;;;;;;;;4.00;3.50;20.60;74.00;;;19.53;55.26;102380.75;5074902;28;8785;-50
2021/01/11 02:52:54;;;;;;;;;8.00;6.00;20.80;74.40;;;19.58;55.38;102390.28;5067862;28;8812;-53
2021/01/11 02:55:33;;;;;;;;;3.00;2.75;20.80;74.40;;;19.57;55.24;102393.94;5077695;28;8802;-50
2021/01/11 02:58:47;;;;;;;;;3.50;3.00;20.50;74.50;;;19.59;55.25;102387.47;5086133;28;8812;-54
2021/01/11 03:01:17;;;;;;;;;5.00;5.00;20.80;74.70;;;19.61;55.17;102396.22;5073006;28;8790;-55
2021/01/11 03:03:52;;;;;;;;;5.50;5.25;20.70;74.80;;;19.68;55.21;102397.50;5071778;28;8928;-55
2021/01/11 03:06:19;;;;;;;;;5.25;5.25;20.80;74.80;;;19.71;55.18;102386.50;5071006;28;8810;-51
2021/01/11 03:08:46;;;;;;;;;7.00;6.75;20.90;74.40;;;19.71;54.89;102385.66;5082411;28;8796;-52
2021/01/11 03:11:12;;;;;;;;;4.00;3.75;20.90;74.20;;;19.74;54.79;102385.41;5088883;28;8821;-48
2021/01/11 03:13:39;;;;;;;;;6.75;5.75;20.80;74.20;;;19.75;54.85;102394.34;5079368;28;8963;-51
2021/01/11 03:16:06;;;;;;;;;5.00;5.00;20.80;74.30;;;19.75;54.78;102391.66;5093296;28;8807;-52
2021/01/11 03:18:33;;;;;;;;;5.25;5.00;20.90;74.50;;;19.77;54.93;102403.09;5079463;28;8827;-52
2021/01/11 03:21:00;;;;;;;;;4.25;4.25;20.80;74.60;;;19.76;54.93;102396.03;5079746;28;8980;-53
2021/01/11 03:23:27;;;;;;;;;4.50;4.25;20.60;74.50;;;19.77;54.98;102395.03;5089245;28;8778;-51
2021/01/11 03:25:54;;;;;;;;;6.00;5.25;20.80;74.70;;;19.77;54.99;102397.72;5090125;28;9557;-52
2021/01/11 03:28:20;;;;;;;;;6.25;4.00;20.90;74.90;;;19.78;55.02;102400.31;5086569;28;8789;-53
2021/01/11 03:30:47;;;;;;;;;5.00;4.00;20.80;75.00;;;19.79;55.20;102382.38;5083399;28;8895;-53
2021/01/11 03:33:14;;;;;;;;;6.00;5.25;20.70;75.00;;;19.79;55.06;102395.78;5086666;28;8780;-51
2021/01/11 03:35:41;;;;;;;;;3.75;3.75;20.70;75.20;;;19.78;55.30;102396.78;5081008;28;8784;-49
2021/01/11 03:38:07;;;;;;;;;7.00;6.00;20.70;75.30;;;19.80;55.38;102395.69;5083911;28;8884;-51
2021/01/11 03:40:34;;;;;;;;;6.00;6.00;20.70;75.50;;;19.77;55.46;102393.25;5091540;28;8808;-53
2021/01/11 03:43:01;;;;;;;;;4.75;4.75;20.60;75.50;;;19.78;55.35;102386.91;5088918;28;8860;-54
2021/01/11 03:45:28;;;;;;;;;5.00;5.00;20.60;75.60;;;19.78;55.45;102384.22;5089405;28;9496;-51
2021/01/11 03:47:55;;;;;;;;;5.00;5.00;20.50;75.70;;;19.79;55.53;102393.09;5087789;28;8913;-48
2021/01/11 03:50:22;;;;;;;;;4.00;4.00;20.60;75.80;;;19.77;55.67;102385.19;5083287;28;9634;-51
2021/01/11 03:52:48;;;;;;;;;5.50;5.50;20.70;75.90;;;19.79;55.71;102379.69;5073925;28;8806;-54
2021/01/11 03:55:15;;;;;;;;;4.75;4.00;20.60;76.60;;;19.77;55.92;102379.84;5082686;28;8798;-53
2021/01/11 03:57:42;;;;;;;;;5.00;5.00;20.60;76.00;;;19.78;56.04;102380.69;5079974;28;8782;-53
2021/01/11 04:00:09;;;;;;;;;7.50;6.00;20.70;76.20;;;19.77;56.19;102382.53;5076201;28;8804;-50
2021/01/11 04:02:36;;;;;;;;;3.50;3.25;20.70;76.30;;;19.75;56.12;102376.41;5089777;28;8792;-50
2021/01/11 04:05:04;;;;;;;;;6.75;6.00;20.70;76.50;;;19.76;56.13;102380.78;5081366;28;8784;-51
2021/01/11 04:07:30;;;;;;;;;7.00;6.00;20.60;76.50;;;19.76;56.28;102375.44;5095657;28;8800;-54
2021/01/11 04:09:57;;;;;;;;;7.00;7.00;20.40;76.40;;;19.76;56.26;102374.59;5095547;28;8928;-52
2021/01/11 04:12:24;;;;;;;;;6.25;5.00;20.40;76.20;;;19.76;56.15;102388.84;5093766;28;8838;-52
2021/01/11 04:14:51;;;;;;;;;6.50;6.00;20.50;76.40;;;19.76;56.25;102388.84;5082783;28;8784;-52
2021/01/11 04:17:18;;;;;;;;;7.75;6.25;20.80;76.80;;;19.76;56.22;102390.66;5083140;28;8819;-50
2021/01/11 04:19:44;;;;;;;;;9.75;7.75;20.60;76.40;;;19.75;56.16;102399.72;5088444;28;9564;-52
2021/01/11 04:22:11;;;;;;;;;8.00;5.25;20.40;75.20;;;19.76;56.34;102406.75;5092980;28;8815;-48
2021/01/11 04:24:38;;;;;;;;;8.25;7.00;20.60;76.10;;;19.76;56.08;102401.41;5095024;28;8844;-51
2021/01/11 04:27:05;;;;;;;;;6.25;6.25;20.60;76.20;;;19.76;56.04;102401.41;5084189;28;8897;-52
2021/01/11 04:29:32;;;;;;;;;6.50;6.50;20.60;75.90;;;19.75;56.11;102400.56;5091515;28;9520;-50
2021/01/11 04:31:59;;;;;;;;;5.75;5.00;20.60;75.40;;;19.73;56.00;102403.34;5076377;28;8881;-52
2021/01/11 04:34:25;;;;;;;;;5.75;5.75;20.50;75.30;;;19.73;56.01;102410.53;5089417;28;8848;-51
2021/01/11 04:36:52;;;;;;;;;6.00;5.75;20.40;76.50;;;19.72;56.35;102407.00;5089003;28;8870;-52
2021/01/11 04:39:19;;;;;;;;;5.00;5.00;20.50;76.70;;;19.76;56.18;102404.09;5092316;28;8784;-51
2021/01/11 04:41:47;;;;;;;;;6.50;6.50;20.60;76.10;;;19.78;55.56;102410.19;5086257;28;8792;-49
2021/01/11 04:44:21;;;;;;;;;5.00;5.00;20.80;75.90;;;19.78;55.64;102400.31;5081392;28;8786;-51
2021/01/11 04:46:49;;;;;;;;;6.25;6.25;20.50;75.60;;;19.76;55.47;102407.59;5069791;28;9519;-51
2021/01/11 04:49:16;;;;;;;;;4.00;3.75;20.40;75.60;;;19.78;55.59;102404.81;5080772;28;8905;-48
2021/01/11 04:51:44;;;;;;;;;6.00;5.00;20.60;75.90;;;19.76;55.47;102406.75;5089523;28;8885;-54
2021/01/11 04:54:17;;;;;;;;;6.00;5.50;20.60;76.00;;;19.77;55.63;102408.44;5083768;28;9708;-54
2021/01/11 04:56:48;;;;;;;;;5.75;5.75;20.60;76.10;;;19.75;55.76;102410.44;5079688;28;8776;-52
2021/01/11 04:59:26;;;;;;;;;5.00;5.00;20.60;76.20;;;19.76;55.67;102412.13;5088496;28;8788;-52
2021/01/11 05:01:55;;;;;;;;;5.50;5.50;20.70;76.30;;;19.73;55.82;102410.53;5066152;28;8901;-52
2021/01/11 05:04:22;;;;;;;;;7.00;7.00;20.50;76.40;;;19.73;56.22;102408.69;5074316;28;8788;-54
2021/01/11 05:06:51;;;;;;;;;4.50;4.50;20.60;76.60;;;19.76;55.98;102401.41;5090224;28;8830;-52
2021/01/11 05:09:18;;;;;;;;;4.75;4.75;20.70;76.20;;;19.78;55.73;102404.81;5076139;28;8806;-53
2021/01/11 05:11:45;;;;;;;;;5.00;5.00;20.80;75.70;;;19.80;55.51;102402.88;5090873;28;8816;-53
2021/01/11 05:14:18;;;;;;;;;6.00;5.00;20.70;75.60;;;19.79;55.72;102403.84;5093980;28;8842;-52
2021/01/11 05:17:05;;;;;;;;;5.00;5.00;20.70;75.70;;;19.80;55.70;102402.88;5086961;28;8784;-51
2021/01/11 05:19:32;;;;;;;;;2.50;2.50;20.80;76.00;;;19.79;55.73;102407.34;5085430;28;8880;-54
2021/01/11 05:22:00;;;;;;;;;4.75;4.75;20.50;76.00;;;19.79;55.85;102403.84;5079247;28;8804;-51
2021/01/11 05:24:42;;;;;;;;;3.25;3.25;20.50;76.10;;;19.78;55.92;102399.44;5096588;28;8791;-51
2021/01/11 05:27:11;;;;;;;;;6.50;6.50;20.60;76.30;;;19.79;56.12;102399.31;5077580;28;8794;-55
2021/01/11 05:29:39;;;;;;;;;5.50;4.50;20.70;76.70;;;19.80;55.85;102384.94;5084298;28;8792;-52
2021/01/11 05:32:09;;;;;;;;;6.75;6.75;20.80;76.50;;;19.80;55.92;102384.94;5098237;28;8858;-53
2021/01/11 05:34:50;;;;;;;;;5.00;5.00;20.60;76.20;;;19.77;56.00;102395.03;5099411;28;8786;-53
2021/01/11 05:37:40;;;;;;;;;6.00;6.00;20.70;76.30;;;19.76;56.03;102398.72;5089768;28;8783;-54
2021/01/11 05:40:13;;;;;;;;;5.00;4.50;20.50;76.50;;;19.73;55.99;102387.25;5091358;28;8772;-51
2021/01/11 05:42:42;;;;;;;;;6.25;5.00;20.50;76.30;;;19.75;56.00;102379.09;5090713;28;8780;-52
2021/01/11 05:45:13;;;;;;;;;6.75;6.00;20.70;75.90;;;19.75;55.85;102378.25;5083248;28;9547;-51
2021/01/11 05:48:09;;;;;;;;;6.50;5.00;20.80;75.70;;;19.73;56.08;102384.56;5081614;28;8809;-53
2021/01/11 05:50:40;;;;;;;;;4.00;4.00;20.70;75.80;;;19.74;56.19;102377.38;5089574;28;8910;-51
2021/01/11 05:53:23;;;;;;;;;4.00;4.00;20.60;76.20;;;19.71;56.49;102380.31;5089775;28;8810;-51
2021/01/11 05:55:52;;;;;;;;;5.00;4.25;20.50;76.60;;;19.70;56.61;102395.53;5091419;28;8783;-54
2021/01/11 05:58:21;;;;;;;;;5.00;5.00;20.60;76.80;;;19.69;56.73;102398.34;5080400;28;9598;-52
2021/01/11 06:00:49;;;;;;;;;4.00;4.00;20.60;76.80;;;19.66;56.70;102396.72;5083125;28;9621;-53
2021/01/11 06:03:17;;;;;;;;;3.75;3.00;20.60;77.50;;;19.65;56.66;102389.66;5086460;28;8818;-52
2021/01/11 06:05:44;;;;;;;;;6.00;6.00;20.40;76.80;;;19.64;56.65;102393.34;5084881;28;8815;-51
2021/01/11 06:08:15;;;;;;;;;8.00;7.25;20.50;76.90;;;19.63;56.99;102396.97;5086559;28;8791;-53
2021/01/11 06:10:45;;;;;;;;;7.00;6.25;20.50;77.00;;;19.62;56.60;102402.47;5076047;28;9550;-54
2021/01/11 06:13:13;;;;;;;;;4.75;4.75;20.50;77.00;;;19.60;57.04;102401.72;5079813;28;8832;-54
2021/01/11 06:15:42;;;;;;;;;6.75;6.50;20.50;77.00;;;19.60;56.89;102410.63;5080269;28;9531;-53
2021/01/11 06:18:12;;;;;;;;;5.00;4.00;20.40;77.10;;;19.57;56.75;102402.81;5085778;28;8913;-53
2021/01/11 06:20:48;;;;;;;;;7.50;6.75;20.40;77.10;;;19.54;56.91;102411.13;5060453;28;8806;-48
2021/01/11 06:23:41;;;;;;;;;6.00;6.00;20.40;77.30;;;19.52;56.88;102408.53;5080257;28;8815;-55
2021/01/11 06:26:28;;;;;;;;;7.25;5.00;20.30;77.20;;;19.50;56.90;102398.91;5069608;28;8880;-50
2021/01/11 06:28:57;;;;;;;;;5.25;5.00;20.30;77.20;;;19.49;56.92;102410.63;5083042;28;8794;-53
2021/01/11 06:31:33;;;;;;;;;6.50;5.00;20.30;77.20;;;19.48;56.83;102416.94;5092417;28;8924;-53
2021/01/11 06:34:00;;;;;;;;;5.67;5.00;20.30;77.10;;;19.46;56.80;102408.16;5092641;28;8920;-54
2021/01/11 06:36:36;;;;;;;;;3.75;3.00;20.30;77.10;;;19.45;56.92;102415.34;5092709;28;8788;-52
2021/01/11 06:39:10;;;;;;;;;6.25;6.00;20.30;77.30;;;19.42;56.89;102404.88;5076123;28;8784;-53
2021/01/11 06:41:37;;;;;;;;;4.00;3.25;20.40;77.40;;;19.42;56.99;102402.19;5082920;28;8798;-52
2021/01/11 06:44:09;;;;;;;;;4.00;4.00;20.20;77.30;;;19.40;57.18;102395.25;5091672;28;8800;-53
2021/01/11 06:46:45;;;;;;;;;4.00;4.00;20.20;77.20;;;19.39;57.06;102401.59;5088441;28;8808;-52
2021/01/11 06:49:29;;;;;;;;;6.25;6.25;20.40;77.30;;;19.37;57.00;102403.53;5080918;28;8811;-52
2021/01/11 06:52:08;;;;;;;;;4.75;4.75;20.20;77.10;;;19.36;57.03;102402.69;5090404;28;8800;-55
2021/01/11 06:54:45;;;;;;;;;4.00;4.00;20.20;77.20;;;19.35;57.07;102397.44;5074438;28;8823;-52
2021/01/11 06:57:17;;;;;;;;;4.50;4.50;20.10;77.10;;;19.33;57.12;102394.84;5090988;28;8780;-53
2021/01/11 06:59:47;;;;;;;;;4.50;4.50;20.20;77.10;;;19.32;56.82;102397.69;5092260;28;8822;-52
2021/01/11 07:02:23;;;;;;;;;6.50;6.50;20.20;77.70;;;19.31;57.08;102402.19;5090304;28;8857;-54
2021/01/11 07:04:51;;;;;;;;;4.75;4.75;20.20;77.10;;;19.27;56.93;102401.56;5089353;28;8786;-52
2021/01/11 07:07:21;;;;;;;;;5.00;4.25;20.40;77.20;;;19.26;56.97;102407.91;5089568;28;9544;-50
2021/01/11 07:09:59;;;;;;;;;5.50;5.50;20.00;76.90;;;19.27;56.94;102412.28;5092973;28;8879;-53
2021/01/11 07:12:27;;;;;;;;;5.75;5.75;20.10;77.00;;;19.25;57.06;102414.22;5087565;28;8858;-52
2021/01/11 07:15:15;;;;;;;;;7.00;5.50;20.10;77.00;;;19.22;57.21;102393.03;5090571;28;8803;-50
2021/01/11 07:17:47;;;;;;;;;5.00;5.00;20.00;76.90;;;19.22;56.84;102390.34;5064176;28;8788;-52
2021/01/11 07:20:36;;;;;;;;;5.50;4.50;20.10;77.00;;;19.20;57.08;102392.28;5087289;28;9563;-53
2021/01/11 07:23:03;;;;;;;;;5.50;5.00;20.20;77.00;;;19.19;57.03;102379.88;5076084;28;8794;-54
2021/01/11 07:25:31;;;;;;;;;3.25;2.50;20.00;77.00;;;19.20;57.09;102386.06;5076390;28;8782;-54
2021/01/11 07:28:01;;;;;;;;;5.00;5.00;20.20;77.10;;;19.17;57.11;102380.97;5076213;28;8889;-54
2021/01/11 07:30:31;;;;;;;;;4.25;4.25;20.30;77.10;;;19.15;57.17;102378.38;5080442;28;8840;-52
2021/01/11 07:32:57;;;;;;;;;3.75;3.75;20.10;77.00;;;19.15;57.21;102374.84;5088963;28;8891;-54
2021/01/11 07:35:24;;;;;;;;;7.00;6.00;20.20;77.00;;;19.13;57.13;102371.44;5095761;28;8819;-52
2021/01/11 07:37:51;;;;;;;;;4.00;4.00;20.00;77.00;;;19.13;57.18;102372.28;5094015;28;8782;-52
2021/01/11 07:40:22;;;;;;;;;5.00;4.75;20.00;77.00;;;19.12;57.27;102370.59;5092965;28;8811;-53
2021/01/11 07:42:50;;;;;;;;;5.00;5.00;20.00;77.00;;;19.11;57.15;102365.34;5069314;28;8838;-55
2021/01/11 07:45:18;;;;;;;;;5.50;5.50;20.00;76.90;;;19.09;57.25;102358.28;5079663;28;9538;-55
2021/01/11 07:47:51;;;;;;;;;5.00;4.25;20.00;77.00;;;19.07;57.29;102354.88;5084895;28;8792;-55
2021/01/11 07:50:20;;;;;;;;;5.50;4.75;20.10;77.10;;;19.08;57.19;102350.34;5088425;28;8763;-55
2021/01/11 07:52:48;;;;;;;;;5.50;5.00;20.00;77.00;;;19.05;57.30;102350.59;5095480;28;8788;-55
2021/01/11 07:55:15;;;;;;;;;5.75;5.25;20.00;77.00;;;19.05;57.20;102354.13;5094301;28;8898;-52
2021/01/11 07:57:42;;;;;;;;;5.25;5.00;20.20;77.30;;;19.04;57.17;102340.88;5059926;28;8790;-54
2021/01/11 08:00:11;;;;;;;;;6.25;6.00;20.00;77.00;;;19.03;57.26;102334.66;5074042;28;8852;-55
2021/01/11 08:02:39;;;;;;;;;6.00;5.75;20.10;77.00;;;19.01;57.15;102325.03;5085761;28;8796;-54
2021/01/11 08:05:25;;;;;;;;;4.50;4.50;20.00;76.90;;;19.01;57.44;102327.72;5089001;28;8798;-54
2021/01/11 08:08:06;;;;;;;;;6.00;5.75;20.00;77.00;;;19.01;57.25;102325.03;5087641;28;8788;-55
2021/01/11 08:10:35;;;;;;;;;4.00;3.00;19.80;76.90;;;19.00;57.31;102326.00;5092411;28;8828;-54
2021/01/11 08:13:09;;;;;;;;;6.00;5.50;19.90;76.90;;;18.99;57.40;102332.34;5089570;28;8784;-54
2021/01/11 08:15:35;;;;;;;;;5.00;5.00;19.90;76.80;;;18.98;57.34;102319.91;5074710;28;8834;-53
2021/01/11 08:18:03;;;;;;;;;6.00;6.00;19.90;76.90;;;18.97;57.14;102316.38;5088417;28;8816;-55
2021/01/11 08:20:30;;;;;;;;;4.50;4.50;19.90;76.80;;;18.95;57.38;102312.97;5088074;28;8857;-53
2021/01/11 08:23:05;;;;;;;;;6.50;6.50;19.90;76.90;;;18.94;57.45;102319.28;5089284;28;8798;-53
2021/01/11 08:25:33;;;;;;;;;6.25;6.25;19.80;76.90;;;18.93;57.19;102322.97;5075742;28;8872;-54
2021/01/11 08:28:03;;;;;;;;;5.25;5.25;19.90;77.00;;;18.92;57.25;102334.63;5065887;28;8786;-53
2021/01/11 08:30:30;;;;;;;;;5.50;5.00;19.80;77.10;;;18.90;57.36;102335.72;5080325;28;8859;-52
2021/01/11 08:33:00;;;;;;;;;6.50;6.00;19.90;77.10;;;18.89;57.44;102331.34;5088139;28;9558;-53
2021/01/11 08:35:28;;;;;;;;;6.50;5.75;19.80;77.10;;;18.88;57.29;102327.81;5094732;28;8868;-52
2021/01/11 08:38:03;;;;;;;;;6.50;5.50;19.70;76.90;;;18.85;57.47;102326.22;5088524;28;8780;-52
2021/01/11 08:40:35;;;;;;;;;6.75;6.75;19.80;77.00;;;18.86;57.51;102325.25;5095154;28;8886;-54
2021/01/11 08:43:20;;;;;;;;;5.00;4.50;19.60;77.50;;;18.85;57.37;102333.38;5092651;28;8884;-54
2021/01/11 08:45:53;;;;;;;;;3.00;3.00;19.80;77.10;;;18.84;57.49;102327.19;5092921;28;8795;-52
2021/01/11 08:48:26;;;;;;;;;5.75;5.75;19.70;77.00;;;18.81;57.44;102330.09;5082585;28;8778;-53
2021/01/11 08:50:52;;;;;;;;;5.00;4.00;19.60;76.90;;;18.80;57.36;102332.88;5075891;28;8817;-52
2021/01/11 08:53:29;;;;;;;;;2.50;2.50;19.70;77.10;;;18.80;57.58;102336.44;5090251;28;8863;-53
2021/01/11 08:56:09;;;;;;;;;4.50;4.50;20.00;77.20;;;18.80;57.48;102339.13;5075618;28;8834;-54
2021/01/11 08:58:39;;;;;;;;;4.75;4.75;19.80;77.80;;;18.77;57.56;102339.31;5080356;28;8786;-53
2021/01/11 09:01:19;;;;;;;;;7.50;6.00;19.90;77.40;;;18.79;57.72;102341.91;5085650;28;8906;-54
2021/01/11 09:03:55;;;;;;;;;6.00;6.00;19.70;77.30;;;18.75;57.90;102338.63;5094712;28;8787;-52
2021/01/11 09:06:41;;;;;;;;;4.00;4.00;19.90;77.50;;;18.75;57.86;102341.28;5092160;28;8874;-55
2021/01/11 09:09:28;;;;;;;;;7.00;6.00;19.70;77.30;;;18.74;57.73;102350.25;5075569;28;8786;-54
2021/01/11 09:12:07;;;;;;;;;5.00;5.00;19.60;77.30;;;18.74;57.79;102346.72;5074207;28;8967;-53
2021/01/11 09:14:51;;;;;;;;;6.50;5.75;19.70;77.20;;;18.74;57.73;102354.75;5074535;28;8801;-54
2021/01/11 09:17:32;;;;;;;;;5.50;5.00;19.60;77.20;;;18.73;57.91;102363.75;5089102;28;8796;-50
2021/01/11 09:20:07;;;;;;;;;4.00;4.00;19.70;77.30;;;18.70;57.82;102362.16;5082157;28;8804;-53
2021/01/11 09:22:42;;;;;;;;;4.25;4.25;19.60;77.30;;;18.69;57.88;102365.78;5082378;28;8900;-53
2021/01/11 09:25:12;;;;;;;;;5.25;4.50;19.70;77.30;;;18.69;57.88;102373.81;5073945;28;8806;-54
2021/01/11 09:27:41;;;;;;;;;5.75;5.75;19.70;77.40;;;18.69;57.95;102371.16;5080592;28;8806;-52
2021/01/11 09:30:09;;;;;;;;;5.75;5.75;19.80;77.50;;;18.69;58.03;102375.66;5075569;28;8766;-55
2021/01/11 09:32:37;;;;;;;;;6.00;6.00;19.70;77.40;;;18.66;58.04;102368.72;5080592;28;9672;-54
2021/01/11 09:35:05;;;;;;;;;5.00;4.00;19.70;77.40;;;18.66;57.93;102369.56;5073867;28;8806;-53
2021/01/11 09:37:32;;;;;;;;;4.00;3.00;19.60;77.40;;;18.64;57.79;102376.84;5089323;28;8774;-54
2021/01/11 09:39:58;;;;;;;;;5.50;5.00;19.70;77.50;;;18.63;58.22;102380.50;5090259;28;8788;-55
2021/01/11 09:42:26;;;;;;;;;4.50;4.50;19.60;77.60;;;18.63;57.96;102379.66;5088844;28;8790;-55
2021/01/11 09:44:52;;;;;;;;;4.50;4.50;19.60;77.60;;;18.62;58.12;102380.59;5092935;28;8780;-53
2021/01/11 09:47:19;;;;;;;;;8.75;6.00;19.70;77.70;;;18.60;58.03;102391.44;5092310;28;8833;-55
2021/01/11 09:49:46;;;;;;;;;3.75;3.25;19.60;77.60;;;18.61;58.29;102393.13;5075592;28;8798;-52
2021/01/11 09:52:13;;;;;;;;;5.50;5.50;19.60;77.50;;;18.61;57.84;102400.31;5091853;28;8816;-52
2021/01/11 09:54:40;;;;;;;;;6.75;6.75;19.50;77.50;;;18.59;57.89;102391.53;5093961;28;8776;-55
2021/01/11 09:57:10;;;;;;;;;6.00;6.00;19.60;77.40;;;18.57;57.99;102389.00;5093272;28;8904;-55
2021/01/11 09:59:38;;;;;;;;;4.50;4.25;19.60;77.30;;;18.58;58.12;102392.53;5077045;28;8858;-54
2021/01/11 10:02:06;;;;;;;;;4.75;4.75;19.60;77.30;;;18.57;57.67;102394.34;5073608;28;8832;-55
2021/01/11 10:04:33;;;;;;;;;4.75;4.00;19.60;77.20;;;18.56;57.89;102394.47;5073211;28;8809;-53
2021/01/11 10:07:00;;;;;;;;;5.50;5.50;19.60;77.20;;;18.54;58.00;102396.38;5081057;28;8795;-53
2021/01/11 10:09:29;;;;;;;;;4.25;4.25;19.40;77.10;;;18.54;57.87;102388.34;5077571;28;8859;-53
2021/01/11 10:11:58;;;;;;;;;6.00;6.00;19.50;77.40;;;18.55;57.95;102401.63;5073307;28;8809;-51
2021/01/11 10:14:27;;;;;;;;;5.00;5.00;19.40;77.50;;;18.54;57.73;102401.75;5087314;28;8910;-55
2021/01/11 10:16:54;;;;;;;;;5.00;5.00;19.60;77.30;;;18.52;57.64;102406.34;5090492;28;8909;-54
2021/01/11 10:19:29;;;;;;;;;6.00;6.00;19.60;76.80;;;18.51;57.40;102400.16;5081882;28;9579;-55
2021/01/11 10:22:02;;;;;;;;;4.50;3.50;19.50;76.70;;;18.49;57.58;102414.59;5073591;28;9552;-53
2021/01/11 10:24:29;;;;;;;;;5.25;5.25;19.60;76.80;;;18.49;57.72;102409.25;5084058;28;9166;-53
2021/01/11 10:26:57;;;;;;;;;4.50;3.50;19.70;77.00;;;18.47;57.70;102419.22;5085685;28;8786;-53
2021/01/11 10:29:25;;;;;;;;;4.00;4.00;19.40;76.80;;;18.49;57.73;102428.00;5073244;28;8774;-52
2021/01/11 10:31:54;;;;;;;;;7.75;6.00;19.60;77.00;;;18.47;57.62;102427.25;5073110;28;8810;-55
2021/01/11 10:34:22;;;;;;;;;5.50;5.50;19.60;77.00;;;18.47;57.58;102421.88;5081733;28;8894;-55
2021/01/11 10:36:54;;;;;;;;;5.25;5.00;19.50;76.80;;;18.45;57.55;102416.66;5093076;28;8903;-53